Regional Weather

 

KMKL - Jackson, TN, USA
Distance from station: WNW 50mi, 81km
Updated: Sun, Dec-17-2017 3:21pm CST
Mist, Overcast
Mist, Overcast
 Wind from WSW
Wind: WSW 5 mph , 7 km/h
Temperature: 48°F , 9°C
Wind Chill: 46°F , 8°C
Dew Point: 46°F , 8°C
Humidity: 94%
Barometer: 30.10 inHg , 1019.3 hPa
Summary: Mist
Clouds: Overcast
Visibility: 1 3/4 miles , 2.8 km
Cloud details: Overcast 600 ft
2017/12/17 21:21 KMKL 172121Z 24004KT 1 3/4SM BR OVC006 09/08 A3010 RMK AO2 T00890083
KMEM - Memphis, TN, USA
Distance from station: W 108mi, 173km
Updated: Sun, Dec-17-2017 2:54pm CST
Overcast
Overcast
 Wind from SSW
Wind: SSW 3 mph , 6 km/h
Temperature: 48°F , 9°C
Dew Point: 45°F , 7°C
Humidity: 87%
Barometer: 30.07 inHg , 1018.3 hPa
Clouds: Overcast
Visibility: 7 miles , 11 km
Cloud details: Overcast 800 ft
2017/12/17 20:54 KMEM 172054Z 21003KT 7SM OVC008 09/07 A3007 RMK AO2 SLP184 T00890072 56008 $
 
KBNA - Nashville, TN, USA
Distance from station: NE 97mi, 157km
Updated: Sun, Dec-17-2017 3:21pm CST
Mist, Overcast
Mist, Overcast
 Wind from SE
Wind: SE 5 mph , 7 km/h
Temperature: 46°F , 8°C
Wind Chill: 44°F , 7°C
Dew Point: 45°F , 7°C
Humidity: 93%
Barometer: 30.11 inHg , 1019.6 hPa
Summary: Mist
Clouds: Overcast
Visibility: 4 miles , 6 km
Cloud details: Mostly cloudy 700 ft
Overcast 1300 ft
2017/12/17 21:21 KBNA 172121Z 14004KT 4SM BR BKN007 OVC013 08/07 A3011 RMK AO2 T00830067
KCKV - Clarksville, TN, USA
Distance from station: NNE 99mi, 159km
Updated: Sun, Dec-17-2017 2:52pm CST
Overcast
Overcast
 Wind from S
Wind: S 6 mph , 9 km/h
Temperature: 45°F , 7°C
Wind Chill: 42°F , 6°C
Dew Point: 39°F , 4°C
Humidity: 81%
Barometer: 30.10 inHg , 1019.3 hPa
Clouds: Overcast
Visibility: 10 miles , 16 km
Cloud details: Overcast 900 ft
2017/12/17 20:52 KCKV 172052Z AUTO 18005KT 10SM OVC009 07/04 A3010 RMK AO2 SLP195 60000 T00720044 55014
 
KPAH - Paducah, KY, USA
Distance from station: NNW 128mi, 205km
Updated: Sun, Dec-17-2017 2:53pm CST
Overcast
Overcast
 Wind from S
Wind: S 3 mph , 6 km/h
Temperature: 46°F , 8°C
Dew Point: 41°F , 5°C
Humidity: 82%
Barometer: 30.08 inHg , 1018.6 hPa
Clouds: Overcast
Visibility: 10 miles , 16 km
Cloud details: Overcast 1300 ft
2017/12/17 20:53 KPAH 172053Z 18003KT 10SM OVC013 08/05 A3008 RMK AO2 SLP187 T00830050 55006
KCHA - Chattanooga, TN, USA
Distance from station: E 165mi, 265km
Updated: Sun, Dec-17-2017 2:53pm CST
Mist, Overcast
Mist, Overcast
 Wind from calm
Wind: Calm
Temperature: 43°F , 6°C
Dew Point: 39°F , 4°C
Humidity: 87%
Barometer: 30.15 inHg , 1021 hPa
Summary: Mist
Clouds: Overcast
Visibility: 2 miles , 3 km
Cloud details: Few Clouds 700 ft
Mostly cloudy 3000 ft
Overcast 4400 ft
2017/12/17 20:53 KCHA 172053Z 00000KT 2SM BR FEW007 BKN030 OVC044 06/04 A3015 RMK AO2 RAB20E36 SLP214 P0001 60011 T00610044 56036
 
KTYS - Knoxville, TN, USA
Distance from station: E 234mi, 377km
Updated: Sun, Dec-17-2017 2:53pm CST
Light rain, Overcast
Light rain, Overcast
 Wind from NNW
Wind: NNW 6 mph , 9 km/h
Temperature: 43°F , 6°C
Wind Chill: 39°F , 4°C
Dew Point: 39°F , 4°C
Humidity: 87%
Barometer: 30.15 inHg , 1021 hPa
Summary: Light rain
Clouds: Overcast
Visibility: 10 miles , 16 km
Cloud details: Partly cloudy 3700 ft
Mostly cloudy 4600 ft
Overcast 7000 ft
2017/12/17 20:53 KTYS 172053Z 33005KT 10SM -RA SCT037 BKN046 OVC070 06/04 A3015 RMK AO2 SLP214 P0000 60003 T00560044 55012
KLIT - Little Rock, AR, USA
Distance from station: W 240mi, 386km
Updated: Sun, Dec-17-2017 2:53pm CST
Mist, Overcast
Mist, Overcast
 Wind from SSW
Wind: SSW 6 mph , 9 km/h
Temperature: 46°F , 8°C
Wind Chill: 43°F , 6°C
Dew Point: 45°F , 7°C
Humidity: 93%
Barometer: 30.10 inHg , 1019.3 hPa
Summary: Mist
Clouds: Overcast
Visibility: 6 miles , 10 km
Cloud details: Overcast 600 ft
2017/12/17 20:53 KLIT 172053Z 20005KT 6SM BR OVC006 08/07 A3010 RMK AO2 SLP195 CIG RGD T00780072 55009

Refresh Page for latest data.